Rechercher aéroport 
image banner adimage banner adimage banner ad
image banner ad

SVAU - Los Aguacates

Situé à Carabobo, Venezuela

ICAO - SVAU, IATA -

Données fournies par Airmate  

Information générale

Coordonnées: N10°3'60" W68°1'18"
Élévation : 328 feet MSL.
 
Voir autres Aéroports à Apure

Données opérationnelles

Special qualification required
Heure actuelle UTC:
Heure actuelle locale:
METAR: SVVA 131002Z AUTO NIL
TAF: TAF SVVA 121000Z 1212/1312 15005KT 9999 FEW016 SCT070 TX33/1219Z TN23/1309Z BECMG 1215/1218 07005KT SCT016 BKN080 FM121830 VRB05KT 9999 BKN020
Voir NOTAMs / SUP AIP / TFR affectant cet aéroport [VIEW]
Fréquences de communication: [VIEW]

Pistes:

Identifiant RWYQFULongueur (ft)Largeur (ft)SurfaceLDA (ft)
1100
2900

Coordonnées de l'aéroport

Adresse: Carabobo Venezuela

Vue satellite de SVAU